San Fermin Berria — EBVW — position and weather

sailwx.info

Track history (hours):
 
Tides and Currents Weather Stations Pressure Air Temp Water Temp Dewpoint Dewpoint Depression Visibility Wind Speed Wind Dir Waves Ship Positions

San Fermin Berria

Last reported at 2016-Apr-28 17:06 UTC. Time now 2016-Apr-28 23:57 UTC.
Position N 43°23' W 001°48'.

Length 30 m.

Type: Fishing. MMSI: 224114650.

Date/timePositionNaut miles runAvg speedWind from/ knotsBaromVisibWave heightAir tempDewpointWater temp
2016-Apr-28 17:06N 43°23' W 001°48'0 0.0
2016-Apr-28 16:33N 43°23' W 001°48'0 0.0
2016-Apr-28 15:33N 43°23' W 001°48'2 0.1
2016-Apr-27 17:32N 43°25' W 001°50'2 2.3
2016-Apr-27 16:32N 43°23' W 001°47'0 0.0
2016-Apr-27 07:33N 43°23' W 001°48'0 0.0
2016-Apr-27 06:25N 43°23' W 001°48'2 0.1
2016-Apr-26 14:33N 43°24' W 001°49'2 0.3
2016-Apr-26 08:21N 43°23' W 001°47'0 0.0
2016-Apr-26 07:33N 43°23' W 001°47'0 0.0
2016-Apr-26 06:33N 43°23' W 001°47'0 0.0
2016-Apr-26 05:33N 43°23' W 001°47'0 0.0
2016-Apr-26 04:33N 43°23' W 001°47'2 0.1
2016-Apr-25 08:13N 43°25' W 001°49'2 3.5
2016-Apr-25 07:33N 43°23' W 001°47'0 0.1
2016-Apr-25 06:31N 43°23' W 001°47'  
2016-Apr-22 11:19N 43°23' W 001°47'0 0.0
2016-Apr-22 10:33N 43°23' W 001°47'0 0.0
2016-Apr-22 09:33N 43°23' W 001°47'0 0.0
2016-Apr-22 08:33N 43°23' W 001°47'0 0.1
2016-Apr-22 07:33N 43°23' W 001°47'1 0.9
2016-Apr-22 06:33N 43°24' W 001°47'0 0.0
2016-Apr-21 14:33N 43°24' W 001°48'1 0.9
2016-Apr-21 13:33N 43°23' W 001°48'0 0.0
2016-Apr-21 12:33N 43°23' W 001°48'0 0.0
2016-Apr-21 11:33N 43°23' W 001°48'11 2.7
2016-Apr-21 07:20N 43°33' W 001°56'0 0.2
2016-Apr-21 05:22N 43°32' W 001°57'3 1.6
2016-Apr-21 03:30N 43°32' W 002°01'0 0.2
2016-Apr-21 02:22N 43°32' W 002°01'2 1.8
2016-Apr-21 01:15N 43°31' W 002°04'2 2.1
2016-Apr-21 00:29N 43°33' W 002°05'13 1.5
2016-Apr-20 15:25N 43°25' W 001°50'3 0.3
2016-Apr-20 07:33N 43°23' W 001°47'0 0.0
2016-Apr-20 06:33N 43°23' W 001°47'0 0.0
2016-Apr-20 05:33N 43°23' W 001°47'0 0.0
2016-Apr-20 04:33N 43°23' W 001°47'0 0.0
2016-Apr-20 03:33N 43°23' W 001°47'13 6.1
2016-Apr-20 01:22N 43°35' W 001°55'1 0.6
2016-Apr-20 00:25N 43°35' W 001°54'0 0.2
2016-Apr-19 23:33N 43°35' W 001°54'1 1.1
2016-Apr-19 22:23N 43°35' W 001°52'2 1.6
2016-Apr-19 21:25N 43°34' W 001°51'8 1.0
2016-Apr-19 13:32N 43°26' W 001°48'3 0.5
2016-Apr-19 06:32N 43°23' W 001°47'1 0.7
2016-Apr-19 05:33N 43°24' W 001°47'3 0.4
2016-Apr-18 23:29N 43°26' W 001°49'3 3.3
2016-Apr-18 22:33N 43°23' W 001°47'0 0.0
2016-Apr-18 21:33N 43°23' W 001°47'1 1.4
2016-Apr-18 20:31N 43°25' W 001°48'2 0.9
2016-Apr-18 18:33N 43°25' W 001°50'2 2.5
2016-Apr-18 17:33N 43°23' W 001°48'  
Track history (hours):
 
Tides and Currents Weather Stations Pressure Air Temp Water Temp Dewpoint Dewpoint Depression Visibility Wind Speed Wind Dir Waves Ship Positions

San Fermin Berria

Last reported at 2016-Apr-28 17:06 UTC. Time now 2016-Apr-28 23:57 UTC.
Position N 43°23' W 001°48'.

Length 30 m.

Type: Fishing. MMSI: 224114650.

Date/timePositionNaut miles runAvg speedWind from/ knotsBaromVisibWave heightAir tempDewpointWater temp
2016-Apr-28 17:06N 43°23' W 001°48'0 0.0
2016-Apr-28 16:33N 43°23' W 001°48'0 0.0
2016-Apr-28 15:33N 43°23' W 001°48'2 0.1
2016-Apr-27 17:32N 43°25' W 001°50'2 2.3
2016-Apr-27 16:32N 43°23' W 001°47'0 0.0
2016-Apr-27 07:33N 43°23' W 001°48'0 0.0
2016-Apr-27 06:25N 43°23' W 001°48'2 0.1
2016-Apr-26 14:33N 43°24' W 001°49'2 0.3
2016-Apr-26 08:21N 43°23' W 001°47'0 0.0
2016-Apr-26 07:33N 43°23' W 001°47'0 0.0
2016-Apr-26 06:33N 43°23' W 001°47'0 0.0
2016-Apr-26 05:33N 43°23' W 001°47'0 0.0
2016-Apr-26 04:33N 43°23' W 001°47'2 0.1
2016-Apr-25 08:13N 43°25' W 001°49'2 3.5
2016-Apr-25 07:33N 43°23' W 001°47'0 0.1
2016-Apr-25 06:31N 43°23' W 001°47'  
2016-Apr-22 11:19N 43°23' W 001°47'0 0.0
2016-Apr-22 10:33N 43°23' W 001°47'0 0.0
2016-Apr-22 09:33N 43°23' W 001°47'0 0.0
2016-Apr-22 08:33N 43°23' W 001°47'0 0.1
2016-Apr-22 07:33N 43°23' W 001°47'1 0.9
2016-Apr-22 06:33N 43°24' W 001°47'0 0.0
2016-Apr-21 14:33N 43°24' W 001°48'1 0.9
2016-Apr-21 13:33N 43°23' W 001°48'0 0.0
2016-Apr-21 12:33N 43°23' W 001°48'0 0.0
2016-Apr-21 11:33N 43°23' W 001°48'11 2.7
2016-Apr-21 07:20N 43°33' W 001°56'0 0.2
2016-Apr-21 05:22N 43°32' W 001°57'3 1.6
2016-Apr-21 03:30N 43°32' W 002°01'0 0.2
2016-Apr-21 02:22N 43°32' W 002°01'2 1.8
2016-Apr-21 01:15N 43°31' W 002°04'2 2.1
2016-Apr-21 00:29N 43°33' W 002°05'13 1.5
2016-Apr-20 15:25N 43°25' W 001°50'3 0.3
2016-Apr-20 07:33N 43°23' W 001°47'0 0.0
2016-Apr-20 06:33N 43°23' W 001°47'0 0.0
2016-Apr-20 05:33N 43°23' W 001°47'0 0.0
2016-Apr-20 04:33N 43°23' W 001°47'0 0.0
2016-Apr-20 03:33N 43°23' W 001°47'13 6.1
2016-Apr-20 01:22N 43°35' W 001°55'1 0.6
2016-Apr-20 00:25N 43°35' W 001°54'0 0.2
2016-Apr-19 23:33N 43°35' W 001°54'1 1.1
2016-Apr-19 22:23N 43°35' W 001°52'2 1.6
2016-Apr-19 21:25N 43°34' W 001°51'8 1.0
2016-Apr-19 13:32N 43°26' W 001°48'3 0.5
2016-Apr-19 06:32N 43°23' W 001°47'1 0.7
2016-Apr-19 05:33N 43°24' W 001°47'3 0.4
2016-Apr-18 23:29N 43°26' W 001°49'3 3.3
2016-Apr-18 22:33N 43°23' W 001°47'0 0.0
2016-Apr-18 21:33N 43°23' W 001°47'1 1.4
2016-Apr-18 20:31N 43°25' W 001°48'2 0.9
2016-Apr-18 18:33N 43°25' W 001°50'2 2.5
2016-Apr-18 17:33N 43°23' W 001°48'  

Dump ship's entire track history